Moscow, Russia
Current Conditions -  °F | °C
As of 7:00 AM on Wednesday 26 Nov 2014 (Local Time) from UUWW Reporting Station
Haze Haze  
Wind Chill:   Ceiling: 200
Heat Index: 18°   Visibility: 1.8mi
Dew Point: 16°   Wind: 7mph
Humidity: 93%   Direction: 240°WSW
Pressure: 30.45"   Gusts: NA
Location:  55.75°N, 37.62°E
Report Text: UUWW 260400Z 24003MPS 2900 BR OVC002 M08/M09 Q1031 24290050NOSIG
Loading
Personal Weather Stations






























Interactive Weather Map New forecast layout! Learn more

10-Day Weather Forecast

Advertisements
Track Severe Weather on mobile